Time;durP1;ratioP1;P1;durP2;ratioP2;P2;SDS_P1;SDS_P2;PMS_P1;PMS_P2;Temp;Humidity;BMP_temperature;BMP_pressure;BME280_temperature;BME280_humidity;BME280_pressure;Samples;Min_cycle;Max_cycle;Signal;HPM_P1;HPM_P2
2022/08/08 06:54:21;;;;;;;15.18;5.10;;;;;;;;;;2095276;27;21024;-86
2022/08/08 06:55:22;;;;;;;5.90;3.78;;;;;;;;;;2034304;28;20154;-87
2022/08/08 06:58:30;;;;;;;4.93;4.10;;;;;;;;;;2113380;27;20438;-92
2022/08/08 06:59:30;;;;;;;8.05;4.30;;;;;;;;;;2112297;28;20109;-91
2022/08/08 07:00:38;;;;;;;3.90;3.33;;;;;;;;;;2015615;28;83512;-91
2022/08/08 07:01:50;;;;;;;7.35;4.15;;;;;;;;;;2071015;28;20033;-92
2022/08/08 07:02:52;;;;;;;6.88;3.70;;;;;;;;;;2079515;28;20025;-92
2022/08/08 07:03:57;;;;;;;4.15;3.30;;;;;;;;;;2083527;28;20017;-93
2022/08/08 07:05:07;;;;;;;3.92;3.38;;;;;;;;;;2078858;28;20029;-92
2022/08/08 07:06:10;;;;;;;;;;;;;;;;;;2081000;28;20021;-90
2022/08/08 07:07:15;;;;;;;4.53;3.60;;;;;;;;;;2088328;28;19916;-91
2022/08/08 07:08:19;;;;;;;6.05;3.42;;;;;;;;;;2079237;28;20024;-90
2022/08/08 07:09:24;;;;;;;3.85;3.35;;;;;;;;;;2070554;28;20030;-92
2022/08/08 07:10:32;;;;;;;6.10;3.85;;;;;;;;;;2071346;28;20025;-88
2022/08/08 07:11:39;;;;;;;4.05;3.42;;;;;;;;;;2079564;28;20401;-93
2022/08/08 07:12:40;;;;;;;3.95;3.17;;;;;;;;;;2080297;28;20131;-92
2022/08/08 07:13:44;;;;;;;4.18;3.63;;;;;;;;;;2079586;28;20512;-91
2022/08/08 07:14:52;;;;;;;3.80;3.47;;;;;;;;;;2079058;28;20091;-91
2022/08/08 07:16:07;;;;;;;5.22;3.60;;;;;;;;;;2071110;28;20026;-93
2022/08/08 07:17:16;;;;;;;4.38;3.58;;;;;;;;;;2071095;28;20033;-91
2022/08/08 07:18:28;;;;;;;5.38;3.38;;;;;;;;;;2072664;28;20066;-91
2022/08/08 07:19:39;;;;;;;4.43;4.00;;;;;;;;;;2080030;28;20033;-92
2022/08/08 07:20:42;;;;;;;4.72;3.17;;;;;;;;;;2079926;28;20048;-91
2022/08/08 07:21:54;;;;;;;4.88;2.92;;;;;;;;;;2080066;28;20037;-92
2022/08/08 07:23:26;;;;;;;3.10;2.65;;;;;;;;;;2073710;28;20491;-92
2022/08/08 07:24:44;;;;;;;4.50;3.30;;;;;;;;;;2084835;28;20025;-93
2022/08/08 07:25:45;;;;;;;4.18;2.67;;;;;;;;;;2071319;28;20026;-93
2022/08/08 07:26:50;;;;;;;5.05;3.20;;;;;;;;;;2072001;28;20032;-90
2022/08/08 07:28:02;;;;;;;3.17;2.67;;;;;;;;;;2080161;28;20559;-92
2022/08/08 07:29:03;;;;;;;3.70;3.30;;;;;;;;;;2078276;28;20524;-92
2022/08/08 07:30:06;;;;;;;4.40;3.05;;;;;;;;;;2079850;28;20029;-92
2022/08/08 07:31:06;;;;;;;3.95;3.20;;;;;;;;;;2080207;28;20468;-93
2022/08/08 07:32:09;;;;;;;4.38;3.25;;;;;;;;;;2071314;28;20086;-92
2022/08/08 07:33:14;;;;;;;3.08;2.78;;;;;;;;;;2076706;28;20073;-92
2022/08/08 07:34:17;;;;;;;3.80;3.25;;;;;;;;;;2079069;28;20029;-92
2022/08/08 07:35:18;;;;;;;3.13;2.83;;;;;;;;;;2070601;28;20022;-92
2022/08/08 07:36:21;;;;;;;2.80;2.50;;;;;;;;;;2071102;28;20124;-91
2022/08/08 07:37:28;;;;;;;2.90;2.70;;;;;;;;;;2071128;28;20037;-91
2022/08/08 07:38:29;;;;;;;5.30;3.15;;;;;;;;;;2071753;28;20049;-92
2022/08/08 07:39:38;;;;;;;3.67;2.90;;;;;;;;;;2070902;28;20536;-92
2022/08/08 07:40:39;;;;;;;3.50;2.80;;;;;;;;;;2072278;28;20037;-92
2022/08/08 07:41:41;;;;;;;5.68;2.72;;;;;;;;;;2071316;28;20026;-92
2022/08/08 07:42:43;;;;;;;4.38;3.10;;;;;;;;;;2071610;28;20495;-92
2022/08/08 07:43:46;;;;;;;4.63;3.17;;;;;;;;;;2079790;28;20033;-93
2022/08/08 07:44:46;;;;;;;5.15;3.05;;;;;;;;;;2081882;28;20490;-91
2022/08/08 07:45:47;;;;;;;4.70;3.55;;;;;;;;;;2084184;28;20105;-90
2022/08/08 07:46:47;;;;;;;2.78;2.47;;;;;;;;;;2074707;28;20028;-90
2022/08/08 07:47:49;;;;;;;4.65;2.85;;;;;;;;;;2065847;28;20137;-93
2022/08/08 07:48:49;;;;;;;3.58;2.67;;;;;;;;;;2064658;28;20485;-93
2022/08/08 07:49:50;;;;;;;2.70;2.50;;;;;;;;;;2071170;28;20038;-93
2022/08/08 07:50:53;;;;;;;3.33;2.58;;;;;;;;;;2063088;28;20518;-94
2022/08/08 07:51:55;;;;;;;4.90;3.03;;;;;;;;;;2071871;28;20467;-92
2022/08/08 07:52:59;;;;;;;4.65;3.20;;;;;;;;;;2079947;28;20476;-92
2022/08/08 07:54:25;;;;;;;3.38;3.08;;;;;;;;;;2087404;28;20033;-92
2022/08/08 07:55:28;;;;;;;4.18;3.20;;;;;;;;;;2077019;28;20040;-92
2022/08/08 07:56:40;;;;;;;4.43;2.83;;;;;;;;;;2071734;28;20030;-92
2022/08/08 07:57:50;;;;;;;2.88;2.60;;;;;;;;;;2072593;28;20034;-92
2022/08/08 07:58:50;;;;;;;;;;;;;;;;;;2079469;28;20068;-93
2022/08/08 08:00:15;;;;;;;2.95;2.65;;;;;;;;;;2079154;28;20308;-92
2022/08/08 08:01:21;;;;;;;7.03;2.58;;;;;;;;;;2079619;28;20074;-91
2022/08/08 08:02:24;;;;;;;3.00;2.70;;;;;;;;;;2082527;28;20028;-93
2022/08/08 08:03:44;;;;;;;5.18;2.67;;;;;;;;;;2070469;28;20421;-91
2022/08/08 08:04:47;;;;;;;2.60;2.38;;;;;;;;;;2073907;28;20173;-91
2022/08/08 08:05:52;;;;;;;2.97;2.53;;;;;;;;;;2084935;28;20478;-92
2022/08/08 08:06:53;;;;;;;3.08;2.17;;;;;;;;;;2087907;28;20112;-94
2022/08/08 08:08:08;;;;;;;4.13;2.50;;;;;;;;;;2079103;28;20497;-93
2022/08/08 08:09:16;;;;;;;5.28;2.47;;;;;;;;;;2079574;28;20034;-92
2022/08/08 08:10:18;;;;;;;3.58;2.67;;;;;;;;;;2073916;28;20542;-93
2022/08/08 08:11:22;;;;;;;3.22;2.92;;;;;;;;;;2077345;28;20017;-92
2022/08/08 08:12:23;;;;;;;2.47;2.00;;;;;;;;;;2081719;28;20022;-92
2022/08/08 08:13:39;;;;;;;3.03;2.30;;;;;;;;;;2074523;28;20033;-91
2022/08/08 08:14:53;;;;;;;4.47;2.38;;;;;;;;;;2073470;28;20025;-92
2022/08/08 08:15:59;;;;;;;2.92;2.13;;;;;;;;;;2067299;28;20069;-91
2022/08/08 08:16:59;;;;;;;4.20;2.25;;;;;;;;;;2066320;28;20026;-91
2022/08/08 08:18:03;;;;;;;2.33;2.13;;;;;;;;;;2065521;28;20062;-91
2022/08/08 08:19:09;;;;;;;3.08;2.30;;;;;;;;;;2073693;28;20025;-92
2022/08/08 08:20:10;;;;;;;3.63;2.40;;;;;;;;;;2066111;28;20034;-92
2022/08/08 08:21:11;;;;;;;2.90;2.05;;;;;;;;;;2066296;28;20488;-91
2022/08/08 08:22:12;;;;;;;4.63;2.25;;;;;;;;;;2074793;28;20037;-91
2022/08/08 08:23:12;;;;;;;2.30;2.10;;;;;;;;;;2085052;28;20033;-91
2022/08/08 08:24:14;;;;;;;4.00;2.30;;;;;;;;;;2085656;28;20025;-91
2022/08/08 08:25:14;;;;;;;4.65;2.40;;;;;;;;;;2073909;28;20056;-92
2022/08/08 08:26:17;;;;;;;4.95;1.92;;;;;;;;;;2065415;28;20034;-93
2022/08/08 08:27:18;;;;;;;4.07;1.92;;;;;;;;;;2065108;28;20497;-90
2022/08/08 08:28:21;;;;;;;5.10;2.10;;;;;;;;;;2073435;28;20455;-93
2022/08/08 08:29:21;;;;;;;4.43;2.40;;;;;;;;;;2082090;28;20036;-90
2022/08/08 08:30:21;;;;;;;2.55;2.22;;;;;;;;;;2073521;28;20057;-92
2022/08/08 08:31:22;;;;;;;3.55;2.08;;;;;;;;;;2065457;28;20034;-92
2022/08/08 08:32:22;;;;;;;4.18;2.05;;;;;;;;;;2073389;28;20026;-93
2022/08/08 08:33:23;;;;;;;3.15;2.00;;;;;;;;;;2073460;28;20026;-92
2022/08/08 08:34:26;;;;;;;3.97;2.53;;;;;;;;;;2074636;28;20052;-92
2022/08/08 08:35:27;;;;;;;3.75;2.85;;;;;;;;;;2076148;28;20056;-94
2022/08/08 08:36:28;;;;;;;2.60;2.30;;;;;;;;;;2041266;28;20085;-92
2022/08/08 08:37:29;;;;;;;4.97;2.13;;;;;;;;;;2083212;28;20087;-91
2022/08/08 08:38:31;;;;;;;3.60;1.88;;;;;;;;;;2072631;28;20029;-93
2022/08/08 08:39:31;;;;;;;2.63;1.85;;;;;;;;;;2088555;28;20032;-92
2022/08/08 08:40:32;;;;;;;3.15;2.30;;;;;;;;;;2090373;28;20082;-92
2022/08/08 08:41:33;;;;;;;2.47;1.83;;;;;;;;;;2085106;28;20025;-91
2022/08/08 08:42:35;;;;;;;5.30;1.98;;;;;;;;;;2073301;28;20038;-94
2022/08/08 08:43:36;;;;;;;3.35;2.20;;;;;;;;;;2074331;28;20067;-92
2022/08/08 08:44:38;;;;;;;2.35;1.90;;;;;;;;;;2073278;28;20021;-93
2022/08/08 08:45:40;;;;;;;2.08;1.83;;;;;;;;;;2065592;28;20022;-92
2022/08/08 08:46:40;;;;;;;3.42;1.70;;;;;;;;;;2073420;28;20626;-93
2022/08/08 08:47:43;;;;;;;4.35;2.03;;;;;;;;;;2081339;28;20041;-93
2022/08/08 08:48:43;;;;;;;3.00;1.67;;;;;;;;;;2072927;28;20603;-93
2022/08/08 08:49:44;;;;;;;3.47;1.73;;;;;;;;;;2073179;28;20036;-93
2022/08/08 08:50:48;;;;;;;2.75;1.42;;;;;;;;;;2073169;28;20030;-92
2022/08/08 08:51:50;;;;;;;3.17;2.20;;;;;;;;;;2081908;28;20546;-93
2022/08/08 08:52:51;;;;;;;1.60;1.50;;;;;;;;;;2081440;28;20490;-92
2022/08/08 08:53:53;;;;;;;2.20;1.67;;;;;;;;;;2073054;28;20124;-92
2022/08/08 08:54:58;;;;;;;1.77;1.65;;;;;;;;;;1799079;28;6063225;-93
2022/08/08 08:56:00;;;;;;;2.10;1.75;;;;;;;;;;2005449;28;20059;-92
2022/08/08 08:57:05;;;;;;;4.22;1.92;;;;;;;;;;2064594;28;20030;-93
2022/08/08 08:58:07;;;;;;;2.92;1.67;;;;;;;;;;2069710;28;20105;-91
2022/08/08 08:59:09;;;;;;;1.90;1.38;;;;;;;;;;2066805;28;20026;-93
2022/08/08 09:00:10;;;;;;;5.85;2.13;;;;;;;;;;2069637;28;20484;-92
2022/08/08 09:01:31;;;;;;;4.05;2.20;;;;;;;;;;2080395;28;20416;-92
2022/08/08 09:02:34;;;;;;;3.08;1.83;;;;;;;;;;2089556;28;20071;-93
2022/08/08 09:03:35;;;;;;;2.70;1.55;;;;;;;;;;2074077;28;20628;-92
2022/08/08 09:04:36;;;;;;;2.40;1.70;;;;;;;;;;2069470;28;20022;-93
2022/08/08 09:05:39;;;;;;;3.28;1.92;;;;;;;;;;2074589;28;20038;-92
2022/08/08 09:06:41;;;;;;;2.70;2.00;;;;;;;;;;2068940;28;20022;-96
2022/08/08 09:07:43;;;;;;;3.75;2.00;;;;;;;;;;2065754;28;20165;-92
2022/08/08 09:08:47;;;;;;;1.38;1.27;;;;;;;;;;2073540;28;20056;-92
2022/08/08 09:09:53;;;;;;;5.68;2.50;;;;;;;;;;2081940;28;20030;-92
2022/08/08 09:10:54;;;;;;;4.68;2.33;;;;;;;;;;2087750;28;20258;-92
2022/08/08 09:11:57;;;;;;;4.10;1.40;;;;;;;;;;2079869;28;20075;-91
2022/08/08 09:12:59;;;;;;;1.90;1.60;;;;;;;;;;2071434;28;20037;-92
2022/08/08 09:14:01;;;;;;;1.77;1.65;;;;;;;;;;2072980;28;20029;-93
2022/08/08 09:15:02;;;;;;;2.30;1.63;;;;;;;;;;2066941;28;20109;-92
2022/08/08 09:16:03;;;;;;;2.78;1.90;;;;;;;;;;2073993;28;20088;-92
2022/08/08 09:17:06;;;;;;;8.65;1.80;;;;;;;;;;2080917;28;20031;-92
2022/08/08 09:18:13;;;;;;;4.13;1.67;;;;;;;;;;2081030;28;20029;-94
2022/08/08 09:19:14;;;;;;;2.50;1.65;;;;;;;;;;2084483;28;20052;-93
2022/08/08 09:20:18;;;;;;;2.25;1.75;;;;;;;;;;2090656;28;20029;-93
2022/08/08 09:21:20;;;;;;;3.33;1.80;;;;;;;;;;2089236;28;20025;-92
2022/08/08 09:22:22;;;;;;;2.33;1.65;;;;;;;;;;2081053;28;20040;-93
2022/08/08 09:23:23;;;;;;;1.65;1.50;;;;;;;;;;2072637;28;20459;-93
2022/08/08 09:24:27;;;;;;;1.70;1.52;;;;;;;;;;2073246;28;20022;-93
2022/08/08 09:25:27;;;;;;;2.78;1.30;;;;;;;;;;2081856;28;20467;-94
2022/08/08 09:26:46;;;;;;;2.17;1.60;;;;;;;;;;2081129;28;20044;-93
2022/08/08 09:27:46;;;;;;;1.60;1.40;;;;;;;;;;2075100;28;20030;-91
2022/08/08 09:28:49;;;;;;;2.22;1.67;;;;;;;;;;2081583;28;20546;-93
2022/08/08 09:29:51;;;;;;;2.13;1.40;;;;;;;;;;2073138;28;20033;-92
2022/08/08 09:30:52;;;;;;;2.70;1.45;;;;;;;;;;2064840;28;20069;-93
2022/08/08 09:32:03;;;;;;;3.38;1.50;;;;;;;;;;2073382;28;20038;-96
2022/08/08 09:33:05;;;;;;;2.65;1.35;;;;;;;;;;2073455;28;20034;-95
2022/08/08 09:34:07;;;;;;;4.20;1.60;;;;;;;;;;2073940;28;20028;-93
2022/08/08 09:35:12;;;;;;;2.97;1.33;;;;;;;;;;2072828;28;20090;-93
2022/08/08 09:36:20;;;;;;;2.55;1.38;;;;;;;;;;2073395;28;20029;-94
2022/08/08 09:37:26;;;;;;;1.73;1.20;;;;;;;;;;2081169;28;20036;-94
2022/08/08 09:38:51;;;;;;;1.80;1.05;;;;;;;;;;2073197;28;20064;-94
2022/08/08 09:40:08;;;;;;;1.42;1.10;;;;;;;;;;2081697;28;20029;-92
2022/08/08 09:41:12;;;;;;;1.50;1.33;;;;;;;;;;2081173;28;20037;-92
2022/08/08 09:42:22;;;;;;;1.20;0.90;;;;;;;;;;2074291;28;20022;-93
2022/08/08 09:43:22;;;;;;;2.92;1.38;;;;;;;;;;2075332;28;20025;-94
2022/08/08 09:44:44;;;;;;;3.10;1.13;;;;;;;;;;2074297;28;20030;-94
2022/08/08 09:45:55;;;;;;;1.25;1.05;;;;;;;;;;2081043;28;20037;-95
2022/08/08 09:46:56;;;;;;;1.95;1.42;;;;;;;;;;2073929;28;20084;-94
2022/08/08 09:48:01;;;;;;;1.25;1.15;;;;;;;;;;2073041;28;20558;-93
2022/08/08 09:49:01;;;;;;;1.98;1.20;;;;;;;;;;2081502;28;20048;-94
2022/08/08 09:50:08;;;;;;;4.20;1.63;;;;;;;;;;2081176;28;20503;-94
2022/08/08 09:51:08;;;;;;;1.38;1.20;;;;;;;;;;2086819;28;20029;-93
2022/08/08 09:52:09;;;;;;;2.15;1.13;;;;;;;;;;2097616;28;20031;-95
2022/08/08 09:53:12;;;;;;;5.93;1.52;;;;;;;;;;2088850;28;20462;-93
2022/08/08 09:54:17;;;;;;;2.55;1.88;;;;;;;;;;2081504;28;20124;-94
2022/08/08 09:55:19;;;;;;;3.22;1.50;;;;;;;;;;2081831;28;20053;-95
2022/08/08 09:56:20;;;;;;;4.82;1.40;;;;;;;;;;2081449;28;20073;-96
2022/08/08 09:57:35;;;;;;;2.83;1.42;;;;;;;;;;2081192;28;20025;-95
2022/08/08 09:58:47;;;;;;;3.47;1.33;;;;;;;;;;2089242;28;20086;-94
2022/08/08 09:59:50;;;;;;;1.40;1.30;;;;;;;;;;2092708;28;20032;-94
2022/08/08 10:00:54;;;;;;;1.95;1.30;;;;;;;;;;2089565;28;20074;-95
2022/08/08 10:01:55;;;;;;;3.20;1.33;;;;;;;;;;2089904;28;20049;-93
2022/08/08 10:02:56;;;;;;;3.00;1.88;;;;;;;;;;2089156;28;20407;-92
2022/08/08 10:03:58;;;;;;;1.77;1.50;;;;;;;;;;2089038;28;20056;-93
2022/08/08 10:05:04;;;;;;;2.13;1.35;;;;;;;;;;2088684;28;20519;-93
2022/08/08 10:06:15;;;;;;;4.72;1.95;;;;;;;;;;2088945;28;20028;-92
2022/08/08 10:07:16;;;;;;;5.30;1.85;;;;;;;;;;2091608;28;20065;-94
2022/08/08 10:08:16;;;;;;;3.55;1.42;;;;;;;;;;2088403;28;20092;-92
2022/08/08 10:09:32;;;;;;;6.15;1.70;;;;;;;;;;2079525;28;20041;-93
2022/08/08 10:10:36;;;;;;;3.20;1.23;;;;;;;;;;2073464;28;20029;-92
2022/08/08 10:11:37;;;;;;;3.53;1.60;;;;;;;;;;2080931;28;20551;-93
2022/08/08 10:12:39;;;;;;;2.08;1.52;;;;;;;;;;2080203;28;20039;-92
2022/08/08 10:13:51;;;;;;;4.38;1.40;;;;;;;;;;2021934;28;20461;-93
2022/08/08 10:14:59;;;;;;;5.05;1.38;;;;;;;;;;2069651;28;20039;-94
2022/08/08 10:16:00;;;;;;;3.70;1.35;;;;;;;;;;2089887;28;20043;-93
2022/08/08 10:17:05;;;;;;;2.63;1.70;;;;;;;;;;2096396;28;20056;-92
2022/08/08 10:18:05;;;;;;;2.63;1.70;;;;;;;;;;2089380;28;20104;-93
2022/08/08 10:19:19;;;;;;;1.92;1.73;;;;;;;;;;2093839;28;20025;-89
2022/08/08 10:20:24;;;;;;;1.85;1.40;;;;;;;;;;2099624;28;20021;-91
2022/08/08 10:21:24;;;;;;;8.57;1.80;;;;;;;;;;2097560;28;20021;-92
2022/08/08 10:22:27;;;;;;;5.75;1.45;;;;;;;;;;2089891;28;20022;-91
2022/08/08 10:23:33;;;;;;;4.25;1.75;;;;;;;;;;2085730;28;20031;-90
2022/08/08 10:24:35;;;;;;;2.80;1.77;;;;;;;;;;1743112;28;10001645;-93
2022/08/08 10:25:38;;;;;;;3.42;1.83;;;;;;;;;;2095801;28;20059;-92
2022/08/08 10:26:39;;;;;;;2.78;2.20;;;;;;;;;;2092576;28;20375;-92
2022/08/08 10:27:41;;;;;;;3.83;1.73;;;;;;;;;;2096598;28;20039;-92
2022/08/08 10:28:53;;;;;;;4.70;1.85;;;;;;;;;;2096877;28;20036;-92
2022/08/08 10:30:01;;;;;;;2.65;1.45;;;;;;;;;;2087761;28;20033;-92
2022/08/08 10:32:30;;;;;;;5.32;1.70;;;;;;;;;;2075894;28;20060;-92
2022/08/08 10:32:31;;;;;;;3.00;1.88;;;;;;;;;;2083335;28;20048;-92
2022/08/08 10:33:37;;;;;;;2.30;2.03;;;;;;;;;;2081609;28;20025;-92
2022/08/08 10:34:48;;;;;;;2.72;1.67;;;;;;;;;;2084234;28;20037;-92
2022/08/08 10:35:55;;;;;;;2.28;1.52;;;;;;;;;;2080440;28;20041;-95
2022/08/08 10:36:56;;;;;;;4.47;1.52;;;;;;;;;;2086961;28;20075;-91
2022/08/08 10:37:59;;;;;;;3.78;1.83;;;;;;;;;;2099770;28;20134;-89
2022/08/08 10:39:02;;;;;;;2.42;1.45;;;;;;;;;;2096672;28;20028;-90
2022/08/08 10:40:13;;;;;;;2.30;1.33;;;;;;;;;;2088568;28;20439;-91
2022/08/08 10:41:16;;;;;;;1.88;1.60;;;;;;;;;;2088672;28;20033;-92
2022/08/08 10:42:18;;;;;;;3.85;1.95;;;;;;;;;;2085011;28;20153;-91
2022/08/08 10:43:19;;;;;;;3.58;1.42;;;;;;;;;;2088537;28;20103;-91
2022/08/08 10:44:39;;;;;;;1.90;1.58;;;;;;;;;;2080546;28;20026;-92
2022/08/08 10:45:45;;;;;;;2.08;1.73;;;;;;;;;;2082823;28;20026;-93
2022/08/08 10:46:45;;;;;;;5.63;1.83;;;;;;;;;;1731515;28;10252180;-92
2022/08/08 10:47:52;;;;;;;2.88;1.40;;;;;;;;;;2086516;28;20021;-92
2022/08/08 10:48:54;;;;;;;2.33;1.52;;;;;;;;;;2081217;28;20085;-94
2022/08/08 10:50:03;;;;;;;2.65;1.50;;;;;;;;;;2080340;28;20124;-92
2022/08/08 10:51:11;;;;;;;5.75;1.58;;;;;;;;;;2086397;28;20021;-93
2022/08/08 10:52:44;;;;;;;4.97;1.80;;;;;;;;;;1738564;28;10061349;-91
2022/08/08 10:53:49;;;;;;;2.05;1.42;;;;;;;;;;2071864;28;20065;-92
2022/08/08 10:55:18;;;;;;;2.00;1.60;;;;;;;;;;2076356;28;20033;-95
2022/08/08 10:56:20;;;;;;;6.75;1.73;;;;;;;;;;2084946;28;20024;-92
2022/08/08 10:57:20;;;;;;;3.53;2.08;;;;;;;;;;2084227;28;20460;-91
2022/08/08 10:58:27;;;;;;;2.38;1.33;;;;;;;;;;2091658;28;20060;-92
2022/08/08 10:59:27;;;;;;;3.38;1.80;;;;;;;;;;2092962;28;20024;-92
2022/08/08 11:00:28;;;;;;;3.22;1.60;;;;;;;;;;2099361;28;20024;-92
2022/08/08 11:01:30;;;;;;;1.48;1.20;;;;;;;;;;2098494;28;20063;-92
2022/08/08 11:02:32;;;;;;;1.50;1.30;;;;;;;;;;2074248;28;20022;-92
2022/08/08 11:03:43;;;;;;;2.97;1.52;;;;;;;;;;2076671;28;20117;-91
2022/08/08 11:04:46;;;;;;;3.10;1.38;;;;;;;;;;2075549;28;20026;-91
2022/08/08 11:05:48;;;;;;;2.65;1.42;;;;;;;;;;2075631;28;20017;-91
2022/08/08 11:06:57;;;;;;;1.80;1.63;;;;;;;;;;2080497;28;20028;-93
2022/08/08 11:08:00;;;;;;;1.70;1.23;;;;;;;;;;2084599;28;20531;-89
2022/08/08 11:09:04;;;;;;;2.45;2.10;;;;;;;;;;2088556;28;20348;-91
2022/08/08 11:10:12;;;;;;;2.47;1.20;;;;;;;;;;2089232;28;20021;-90
2022/08/08 11:11:13;;;;;;;2.25;1.52;;;;;;;;;;2084201;28;20098;-90
2022/08/08 11:12:19;;;;;;;3.97;1.30;;;;;;;;;;2072914;28;20053;-89
2022/08/08 11:13:20;;;;;;;2.67;1.40;;;;;;;;;;2089155;28;20029;-90
2022/08/08 11:14:21;;;;;;;5.88;1.50;;;;;;;;;;2097575;28;20028;-91
2022/08/08 11:15:23;;;;;;;3.38;1.58;;;;;;;;;;2088278;28;20582;-89
2022/08/08 11:16:26;;;;;;;2.42;1.30;;;;;;;;;;2084734;28;20021;-91
2022/08/08 11:17:31;;;;;;;6.55;1.60;;;;;;;;;;1725907;28;10223286;-92
2022/08/08 11:18:34;;;;;;;1.65;0.93;;;;;;;;;;2080123;28;20126;-92
2022/08/08 11:19:35;;;;;;;2.75;1.13;;;;;;;;;;2082589;28;20036;-91
2022/08/08 11:20:36;;;;;;;2.58;1.20;;;;;;;;;;2079805;28;20032;-92
2022/08/08 11:21:44;;;;;;;3.83;1.88;;;;;;;;;;2077451;28;20400;-91
2022/08/08 11:22:58;;;;;;;3.33;1.13;;;;;;;;;;2080527;28;20032;-90
2022/08/08 11:24:03;;;;;;;2.13;1.20;;;;;;;;;;2074737;28;20057;-94
2022/08/08 11:25:06;;;;;;;2.88;1.63;;;;;;;;;;2081225;28;20025;-96
2022/08/08 11:26:06;;;;;;;2.08;1.35;;;;;;;;;;2080928;28;20021;-96
2022/08/08 11:27:08;;;;;;;1.48;1.38;;;;;;;;;;2080885;28;20033;-93
2022/08/08 11:28:11;;;;;;;3.20;1.20;;;;;;;;;;2080938;28;20117;-95
2022/08/08 11:29:12;;;;;;;2.42;1.35;;;;;;;;;;2089481;28;20463;-94
2022/08/08 11:30:14;;;;;;;1.42;1.25;;;;;;;;;;2097197;28;20027;-95
2022/08/08 11:31:16;;;;;;;1.75;1.25;;;;;;;;;;2089164;28;20029;-94
2022/08/08 11:32:18;;;;;;;2.38;1.67;;;;;;;;;;2097443;28;20024;-95
2022/08/08 11:33:23;;;;;;;3.00;1.55;;;;;;;;;;2097474;28;20017;-94
2022/08/08 11:34:29;;;;;;;2.75;1.50;;;;;;;;;;2089117;28;20080;-95
2022/08/08 11:35:30;;;;;;;1.70;1.23;;;;;;;;;;2090074;28;20557;-96
2022/08/08 11:36:36;;;;;;;1.52;1.20;;;;;;;;;;2089620;28;20021;-95
2022/08/08 11:37:39;;;;;;;2.78;1.40;;;;;;;;;;2082193;28;20022;-93
2022/08/08 11:38:41;;;;;;;1.70;1.27;;;;;;;;;;2090923;28;20087;-95
2022/08/08 11:39:42;;;;;;;3.33;1.70;;;;;;;;;;2091613;28;20024;-94
2022/08/08 11:40:45;;;;;;;3.58;1.58;;;;;;;;;;1723735;28;10379634;-92
2022/08/08 11:41:46;;;;;;;5.13;1.63;;;;;;;;;;2099861;28;20029;-93
2022/08/08 11:42:49;;;;;;;2.28;1.52;;;;;;;;;;2098322;28;20025;-94
2022/08/08 11:43:53;;;;;;;1.88;1.40;;;;;;;;;;2097890;28;20029;-92
2022/08/08 11:44:54;;;;;;;3.20;1.30;;;;;;;;;;2098843;28;20506;-95
2022/08/08 11:45:55;;;;;;;1.33;1.23;;;;;;;;;;2099564;28;20060;-95
2022/08/08 11:46:56;;;;;;;3.78;1.58;;;;;;;;;;2090714;28;20025;-95
2022/08/08 11:47:58;;;;;;;1.85;1.30;;;;;;;;;;2090601;28;20052;-93
2022/08/08 11:49:06;;;;;;;3.88;1.60;;;;;;;;;;2090773;28;20104;-93
2022/08/08 11:50:11;;;;;;;2.67;1.60;;;;;;;;;;2099369;28;20020;-94
2022/08/08 11:51:12;;;;;;;2.70;1.40;;;;;;;;;;2098594;28;20039;-94
2022/08/08 11:52:13;;;;;;;1.85;1.42;;;;;;;;;;2090716;28;20044;-94
2022/08/08 11:53:14;;;;;;;1.90;1.65;;;;;;;;;;2090629;28;20017;-93
2022/08/08 11:54:15;;;;;;;3.47;1.70;;;;;;;;;;2090523;28;20033;-95
2022/08/08 11:55:21;;;;;;;2.33;1.40;;;;;;;;;;2090728;28;20050;-94
2022/08/08 11:56:22;;;;;;;2.15;1.35;;;;;;;;;;2091428;28;20119;-93
2022/08/08 11:57:28;;;;;;;2.03;1.38;;;;;;;;;;2090317;28;20032;-93
2022/08/08 11:58:33;;;;;;;2.58;1.48;;;;;;;;;;2091193;28;20017;-94
2022/08/08 11:59:34;;;;;;;2.15;1.33;;;;;;;;;;2090599;28;20017;-93
2022/08/08 12:00:43;;;;;;;1.67;1.15;;;;;;;;;;2082257;28;20033;-93
2022/08/08 12:01:44;;;;;;;2.05;1.30;;;;;;;;;;2091583;28;20406;-93
2022/08/08 12:02:53;;;;;;;1.50;1.05;;;;;;;;;;2090189;28;20028;-92
2022/08/08 12:03:54;;;;;;;1.20;1.08;;;;;;;;;;2090099;28;20033;-93
2022/08/08 12:05:10;;;;;;;3.92;1.85;;;;;;;;;;1725273;28;10262421;-93
2022/08/08 12:06:15;;;;;;;4.22;1.80;;;;;;;;;;2092198;28;20428;-92
2022/08/08 12:07:17;;;;;;;4.47;1.42;;;;;;;;;;2089942;28;20025;-92
2022/08/08 12:08:32;;;;;;;2.20;1.30;;;;;;;;;;2090132;28;20116;-94
2022/08/08 12:09:35;;;;;;;2.15;1.70;;;;;;;;;;2092343;28;20024;-93
2022/08/08 12:10:48;;;;;;;3.83;1.63;;;;;;;;;;2090358;28;20067;-92
2022/08/08 12:11:49;;;;;;;4.40;1.42;;;;;;;;;;2091835;28;20025;-93
2022/08/08 12:13:00;;;;;;;3.80;1.48;;;;;;;;;;2084686;28;20021;-93
2022/08/08 12:14:03;;;;;;;1.90;1.42;;;;;;;;;;2083515;28;20022;-93
2022/08/08 12:15:04;;;;;;;3.92;1.58;;;;;;;;;;2082704;28;20032;-93
2022/08/08 12:16:15;;;;;;;2.35;1.20;;;;;;;;;;2089460;28;20525;-92
2022/08/08 12:17:15;;;;;;;2.47;1.55;;;;;;;;;;2083341;28;20022;-93
2022/08/08 12:18:20;;;;;;;4.30;1.20;;;;;;;;;;2081883;28;20049;-91
2022/08/08 12:19:24;;;;;;;3.08;1.50;;;;;;;;;;2082566;28;20099;-94
2022/08/08 12:20:36;;;;;;;5.38;2.05;;;;;;;;;;2082515;28;20022;-94
2022/08/08 12:21:45;;;;;;;2.36;1.36;;;;;;;;;;2043681;28;10002217;-93
2022/08/08 12:22:52;;;;;;;2.90;1.60;;;;;;;;;;1721979;28;10001432;-94
2022/08/08 12:24:11;;;;;;;2.85;1.65;;;;;;;;;;2089736;28;20021;-93
2022/08/08 12:25:20;;;;;;;4.00;1.58;;;;;;;;;;2095714;28;20036;-92
2022/08/08 12:26:23;;;;;;;2.53;1.40;;;;;;;;;;2102735;28;20072;-92
2022/08/08 12:27:23;;;;;;;3.42;1.40;;;;;;;;;;2097673;28;20032;-91
2022/08/08 12:28:24;;;;;;;3.33;1.55;;;;;;;;;;2087144;28;20112;-93
2022/08/08 12:29:36;;;;;;;2.70;1.35;;;;;;;;;;2091347;28;20450;-92
2022/08/08 12:30:37;;;;;;;3.80;1.40;;;;;;;;;;2081919;28;20024;-92
2022/08/08 12:31:37;;;;;;;3.55;1.45;;;;;;;;;;2073607;28;20109;-92
2022/08/08 12:32:43;;;;;;;4.88;1.70;;;;;;;;;;2082155;28;20033;-93
2022/08/08 12:33:50;;;;;;;3.35;1.50;;;;;;;;;;1732678;28;10256833;-93
2022/08/08 12:34:57;;;;;;;2.70;1.67;;;;;;;;;;2082002;28;20099;-95
2022/08/08 12:35:57;;;;;;;1.67;1.35;;;;;;;;;;2074292;28;20103;-92
2022/08/08 12:37:04;;;;;;;2.40;1.55;;;;;;;;;;2081751;28;20512;-93
2022/08/08 12:38:07;;;;;;;3.58;1.45;;;;;;;;;;2082740;28;20512;-92
2022/08/08 12:39:08;;;;;;;3.03;1.08;;;;;;;;;;2093570;28;20021;-90
2022/08/08 12:40:17;;;;;;;1.73;1.52;;;;;;;;;;2077507;28;20133;-90
2022/08/08 12:41:21;;;;;;;1.10;1.00;;;;;;;;;;2081923;28;20029;-94
2022/08/08 12:42:22;;;;;;;6.95;1.33;;;;;;;;;;2074465;28;20014;-93
2022/08/08 12:43:32;;;;;;;2.58;1.52;;;;;;;;;;2081926;28;20045;-94
2022/08/08 12:44:35;;;;;;;3.22;1.40;;;;;;;;;;2090601;28;20021;-93
2022/08/08 12:45:40;;;;;;;3.92;1.42;;;;;;;;;;2090432;28;20476;-94
2022/08/08 12:46:40;;;;;;;2.33;1.17;;;;;;;;;;2081689;28;20025;-94
2022/08/08 12:47:41;;;;;;;3.45;1.70;;;;;;;;;;2073492;28;20440;-93
2022/08/08 12:48:55;;;;;;;3.00;1.67;;;;;;;;;;2079331;28;20536;-93
2022/08/08 12:49:56;;;;;;;2.97;1.25;;;;;;;;;;2091905;28;20024;-94
2022/08/08 12:50:57;;;;;;;4.38;1.63;;;;;;;;;;2090002;28;20426;-93
2022/08/08 12:51:58;;;;;;;2.70;1.60;;;;;;;;;;2089974;28;20112;-94
2022/08/08 12:52:58;;;;;;;2.00;1.30;;;;;;;;;;2090337;28;20024;-94
2022/08/08 12:54:00;;;;;;;5.75;1.40;;;;;;;;;;2098772;28;20502;-96
2022/08/08 12:55:06;;;;;;;2.88;1.27;;;;;;;;;;2098424;28;20025;-93
2022/08/08 12:56:09;;;;;;;1.23;1.08;;;;;;;;;;2103516;28;20037;-91
2022/08/08 12:57:14;;;;;;;3.58;1.65;;;;;;;;;;2106456;28;20017;-93
2022/08/08 12:58:14;;;;;;;4.03;1.20;;;;;;;;;;1733663;28;10291279;-93
2022/08/08 12:59:23;;;;;;;1.55;1.45;;;;;;;;;;2090247;28;20447;-93
2022/08/08 13:00:32;;;;;;;2.53;1.40;;;;;;;;;;2091398;28;20467;-93
2022/08/08 13:01:36;;;;;;;3.85;1.35;;;;;;;;;;2091148;28;20075;-94
2022/08/08 13:02:42;;;;;;;1.98;1.35;;;;;;;;;;1732714;28;10257587;-92
2022/08/08 13:03:48;;;;;;;1.30;1.20;;;;;;;;;;2101247;28;20379;-93
2022/08/08 13:04:55;;;;;;;2.30;1.35;;;;;;;;;;2098192;28;20021;-93
2022/08/08 13:06:12;;;;;;;2.67;1.17;;;;;;;;;;2090701;28;20028;-93
2022/08/08 13:07:15;;;;;;;3.17;1.85;;;;;;;;;;1736018;28;10203804;-95
2022/08/08 13:08:23;;;;;;;3.95;1.30;;;;;;;;;;2089913;28;20396;-94
2022/08/08 13:09:56;;;;;;;2.75;1.27;;;;;;;;;;2084006;28;20022;-94
2022/08/08 13:10:57;;;;;;;3.67;1.30;;;;;;;;;;2086040;28;20021;-96
2022/08/08 13:11:57;;;;;;;1.50;1.30;;;;;;;;;;2081327;28;20021;-95
2022/08/08 13:13:01;;;;;;;2.40;1.23;;;;;;;;;;2089917;28;20115;-95
2022/08/08 13:14:19;;;;;;;3.08;1.35;;;;;;;;;;2089748;28;20071;-94
2022/08/08 13:15:21;;;;;;;2.47;1.70;;;;;;;;;;1743984;28;10003789;-95
2022/08/08 13:16:25;;;;;;;3.30;1.60;;;;;;;;;;2089706;28;20033;-93
2022/08/08 13:17:26;;;;;;;4.90;1.40;;;;;;;;;;2081261;28;20018;-93
2022/08/08 13:18:27;;;;;;;3.38;1.40;;;;;;;;;;2083065;28;20017;-94
2022/08/08 13:19:36;;;;;;;5.35;1.50;;;;;;;;;;2087833;28;20110;-94
2022/08/08 13:20:58;;;;;;;5.13;1.65;;;;;;;;;;2094341;28;20085;-95
2022/08/08 13:21:58;;;;;;;1.80;1.33;;;;;;;;;;2101557;28;20089;-95
2022/08/08 13:22:59;;;;;;;1.40;1.20;;;;;;;;;;2090608;28;20105;-95
2022/08/08 13:24:05;;;;;;;2.17;1.42;;;;;;;;;;2089782;28;20031;-92
2022/08/08 13:25:18;;;;;;;3.42;1.30;;;;;;;;;;2089972;28;20056;-94